Time;durP1;ratioP1;P1;durP2;ratioP2;P2;SDS_P1;SDS_P2;PMS_P1;PMS_P2;Temp;Humidity;BMP_temperature;BMP_pressure;BME280_temperature;BME280_humidity;BME280_pressure;Samples;Min_cycle;Max_cycle;Signal;HPM_P1;HPM_P2
2023/09/05 00:00:04;;;;;;;7.70;3.72;;;18.10;99.90;;;;;;5067091;28;20931;-56
2023/09/05 00:02:29;;;;;;;6.70;3.92;;;18.10;99.90;;;;;;5058521;28;20100;-60
2023/09/05 00:04:56;;;;;;;5.50;3.30;;;18.10;99.90;;;;;;5055876;28;20119;-57
2023/09/05 00:07:22;;;;;;;7.45;3.53;;;18.00;99.90;;;;;;5057461;28;20112;-56
2023/09/05 00:09:48;;;;;;;5.90;3.83;;;18.00;99.90;;;;;;5057485;28;20812;-60
2023/09/05 00:12:14;;;;;;;7.28;4.07;;;18.00;99.90;;;;;;5055611;28;20051;-57
2023/09/05 00:14:40;;;;;;;6.57;3.65;;;17.90;99.90;;;;;;5034908;28;20040;-58
2023/09/05 00:17:06;;;;;;;4.80;3.50;;;17.90;99.90;;;;;;5057524;28;20544;-57
2023/09/05 00:19:32;;;;;;;5.78;3.72;;;17.80;99.90;;;;;;5056956;28;20040;-59
2023/09/05 00:21:58;;;;;;;5.85;4.03;;;17.80;99.90;;;;;;5056614;28;20044;-54
2023/09/05 00:24:31;;;;;;;7.65;4.15;;;17.80;99.90;;;;;;5057920;28;20081;-58
2023/09/05 00:27:09;;;;;;;5.70;3.70;;;17.80;99.90;;;;;;5056557;28;20060;-58
2023/09/05 00:29:36;;;;;;;6.43;3.80;;;17.80;99.90;;;;;;5058274;28;20434;-56
2023/09/05 00:32:03;;;;;;;5.20;3.83;;;17.70;99.90;;;;;;5057976;28;20101;-59
2023/09/05 00:34:31;;;;;;;7.18;4.05;;;17.60;99.90;;;;;;5060628;28;20055;-53
2023/09/05 00:37:03;;;;;;;5.78;3.90;;;17.60;99.90;;;;;;5062959;28;20040;-55
2023/09/05 00:39:30;;;;;;;5.93;3.55;;;17.50;99.90;;;;;;5062373;28;20049;-58
2023/09/05 00:41:56;;;;;;;5.50;3.90;;;18.10;99.90;;;;;;5059721;28;20040;-57
2023/09/05 00:44:26;;;;;;;6.75;3.90;;;17.60;99.90;;;;;;5062180;28;20033;-57
2023/09/05 00:46:54;;;;;;;7.22;4.10;;;17.50;99.90;;;;;;5061678;28;20043;-57
2023/09/05 00:49:27;;;;;;;6.28;3.67;;;17.50;99.90;;;;;;5061423;28;20047;-58
2023/09/05 00:51:59;;;;;;;5.85;3.88;;;17.50;99.90;;;;;;5061751;28;20313;-56
2023/09/05 00:54:25;;;;;;;7.13;3.80;;;17.40;99.90;;;;;;5059252;28;20039;-57
2023/09/05 00:56:53;;;;;;;6.78;4.32;;;17.40;99.90;;;;;;5061637;28;20064;-57
2023/09/05 00:59:19;;;;;;;5.43;3.97;;;17.40;99.90;;;;;;5061633;28;20091;-55
2023/09/05 01:01:45;;;;;;;7.10;4.57;;;17.40;99.90;;;;;;5061640;28;20045;-58
2023/09/05 01:04:15;;;;;;;5.40;4.15;;;17.30;99.90;;;;;;5042757;28;20050;-59
2023/09/05 01:07:13;;;;;;;5.95;3.88;;;17.30;99.90;;;;;;5060715;28;20055;-58
2023/09/05 01:09:56;;;;;;;7.05;4.07;;;17.20;99.90;;;;;;5058010;28;20450;-60
2023/09/05 01:12:22;;;;;;;5.10;4.05;;;17.20;99.90;;;;;;5060839;28;20463;-58
2023/09/05 01:14:48;;;;;;;6.97;4.28;;;17.10;99.90;;;;;;5061757;28;22773;-56
2023/09/05 01:17:14;;;;;;;5.53;3.58;;;17.10;99.90;;;;;;5060384;28;20044;-54
2023/09/05 01:19:41;;;;;;;8.05;4.45;;;17.10;99.90;;;;;;5060627;28;20536;-57
2023/09/05 01:22:16;;;;;;;5.95;4.13;;;17.00;99.90;;;;;;5086678;28;20057;-59
2023/09/05 01:24:43;;;;;;;6.85;4.28;;;17.00;99.90;;;;;;5061564;28;20028;-56
2023/09/05 01:27:11;;;;;;;5.82;4.43;;;17.00;99.90;;;;;;5059430;28;20359;-59
2023/09/05 01:29:39;;;;;;;5.65;4.10;;;17.00;99.90;;;;;;5059034;28;20515;-59
2023/09/05 01:32:09;;;;;;;6.47;4.60;;;17.00;99.90;;;;;;5060992;28;20121;-54
2023/09/05 01:34:35;;;;;;;5.40;4.60;;;17.00;99.90;;;;;;5060456;28;20061;-57
2023/09/05 01:37:00;;;;;;;7.00;4.13;;;17.00;99.90;;;;;;5060961;28;20719;-57
2023/09/05 01:39:26;;;;;;;5.90;4.50;;;16.90;99.90;;;;;;5061953;28;20037;-56
2023/09/05 01:41:52;;;;;;;5.82;4.40;;;16.90;99.90;;;;;;5058967;28;20068;-58
2023/09/05 01:44:18;;;;;;;7.18;4.53;;;16.90;99.90;;;;;;5059603;28;20032;-57
2023/09/05 01:46:44;;;;;;;6.32;4.07;;;16.90;99.90;;;;;;5060938;28;20025;-58
2023/09/05 01:49:10;;;;;;;8.38;4.85;;;16.90;99.90;;;;;;5060933;28;20037;-57
2023/09/05 01:51:36;;;;;;;5.72;4.38;;;16.90;99.90;;;;;;5061388;28;20047;-58
2023/09/05 01:54:02;;;;;;;4.78;3.97;;;16.90;99.90;;;;;;5061566;28;20154;-56
2023/09/05 01:56:28;;;;;;;6.38;4.50;;;16.80;99.90;;;;;;5060347;28;20359;-57
2023/09/05 01:58:53;;;;;;;6.40;4.57;;;16.70;99.90;;;;;;5043195;28;20388;-56
2023/09/05 02:01:19;;;;;;;6.40;4.55;;;16.70;99.90;;;;;;5059490;28;20380;-58
2023/09/05 02:03:45;;;;;;;7.47;5.45;;;16.70;99.90;;;;;;5061197;28;20036;-55
2023/09/05 02:06:13;;;;;;;6.72;4.55;;;16.70;99.90;;;;;;5059942;28;20033;-58
2023/09/05 02:08:39;;;;;;;8.48;4.15;;;16.60;99.90;;;;;;5061061;28;20036;-59
2023/09/05 02:11:04;;;;;;;8.90;4.88;;;16.60;99.90;;;;;;5060442;28;20051;-56
2023/09/05 02:13:30;;;;;;;8.00;4.75;;;16.60;99.90;;;;;;5060852;28;20041;-56
2023/09/05 02:15:56;;;;;;;7.97;4.55;;;16.60;99.90;;;;;;5060692;28;20464;-57
2023/09/05 02:18:22;;;;;;;7.50;4.80;;;16.60;99.90;;;;;;5059870;28;20543;-58
2023/09/05 02:20:48;;;;;;;6.80;4.60;;;16.50;99.90;;;;;;5060847;28;20048;-56
2023/09/05 02:23:13;;;;;;;6.82;4.93;;;15.90;99.90;;;;;;5059840;28;20142;-57
2023/09/05 02:25:39;;;;;;;5.68;4.53;;;16.50;99.90;;;;;;5059910;28;20063;-57
2023/09/05 02:28:05;;;;;;;6.68;4.50;;;16.50;99.90;;;;;;5060344;28;20055;-58
2023/09/05 02:30:32;;;;;;;6.40;4.60;;;16.50;99.90;;;;;;5060596;28;20044;-56
2023/09/05 02:32:57;;;;;;;7.80;4.70;;;16.40;99.90;;;;;;5060657;28;20040;-57
2023/09/05 02:35:27;;;;;;;7.93;5.03;;;16.40;99.90;;;;;;5059199;28;20523;-59
2023/09/05 02:37:55;;;;;;;9.35;5.70;;;16.40;99.90;;;;;;5060337;28;20178;-55
2023/09/05 02:40:21;;;;;;;7.20;5.35;;;16.30;99.90;;;;;;5059980;28;20039;-57
2023/09/05 02:42:47;;;;;;;8.20;5.45;;;16.30;99.90;;;;;;5059760;28;20033;-56
2023/09/05 02:45:13;;;;;;;8.50;5.00;;;16.30;99.90;;;;;;5060790;28;20039;-54
2023/09/05 02:47:40;;;;;;;8.50;5.10;;;16.20;99.90;;;;;;5058785;28;20044;-56
2023/09/05 02:50:07;;;;;;;6.80;4.95;;;16.20;99.90;;;;;;5059098;28;20036;-55
2023/09/05 02:52:36;;;;;;;9.95;5.93;;;16.20;99.90;;;;;;5060276;28;20036;-57
2023/09/05 02:55:03;;;;;;;7.78;5.70;;;16.10;99.90;;;;;;5060393;28;20559;-58
2023/09/05 02:57:29;;;;;;;8.50;6.22;;;16.10;99.90;;;;;;5059559;28;20033;-58
2023/09/05 02:59:55;;;;;;;8.40;6.03;;;16.10;99.90;;;;;;5057956;28;20043;-56
2023/09/05 03:02:24;;;;;;;7.72;5.25;;;16.10;99.90;;;;;;5059353;28;20037;-58
2023/09/05 03:04:54;;;;;;;7.40;5.95;;;16.00;99.90;;;;;;5059391;28;20523;-58
2023/09/05 03:07:23;;;;;;;8.13;5.85;;;16.00;99.90;;;;;;5057653;28;20182;-56
2023/09/05 03:09:51;;;;;;;9.32;6.28;;;16.00;99.90;;;;;;5057176;28;20029;-57
2023/09/05 03:12:17;;;;;;;6.63;5.90;;;16.00;99.90;;;;;;5057863;28;20181;-56
2023/09/05 03:14:45;;;;;;;8.20;6.65;;;16.00;99.90;;;;;;5056098;28;20116;-57
2023/09/05 03:17:11;;;;;;;7.75;6.22;;;16.00;99.90;;;;;;5058459;28;20135;-57
2023/09/05 03:19:38;;;;;;;7.80;5.85;;;15.90;99.90;;;;;;5058679;28;20255;-54
2023/09/05 03:22:05;;;;;;;8.23;5.80;;;15.90;99.90;;;;;;5057520;28;20161;-55
2023/09/05 03:24:30;;;;;;;8.50;6.20;;;15.90;99.90;;;;;;5057921;28;20071;-58
2023/09/05 03:26:56;;;;;;;9.95;6.72;;;15.90;99.90;;;;;;5057911;28;20067;-57
2023/09/05 03:29:22;;;;;;;9.43;6.00;;;15.90;99.90;;;;;;5058758;28;20044;-54
2023/09/05 03:31:48;;;;;;;8.02;6.45;;;15.90;99.90;;;;;;5056831;28;20040;-56
2023/09/05 03:34:13;;;;;;;8.20;6.53;;;15.90;99.90;;;;;;5058729;28;20044;-57
2023/09/05 03:36:39;;;;;;;10.57;6.85;;;15.90;99.90;;;;;;5058987;28;20464;-57
2023/09/05 03:39:05;;;;;;;8.88;6.60;;;15.80;99.90;;;;;;5059344;28;20036;-56
2023/09/05 03:41:31;;;;;;;7.47;6.30;;;15.80;99.90;;;;;;5058898;28;20076;-57
2023/09/05 03:43:56;;;;;;;9.73;6.78;;;15.90;99.90;;;;;;5058691;28;20077;-57
2023/09/05 03:46:22;;;;;;;7.85;6.50;;;15.80;99.90;;;;;;5059796;28;20028;-58
2023/09/05 03:48:49;;;;;;;11.00;6.85;;;15.80;99.90;;;;;;5059007;28;20032;-57
2023/09/05 03:51:15;;;;;;;8.25;6.65;;;15.80;99.90;;;;;;5058113;28;20047;-58
2023/09/05 03:53:41;;;;;;;10.38;6.57;;;15.80;99.90;;;;;;5059560;28;20041;-56
2023/09/05 03:56:06;;;;;;;8.70;6.72;;;15.70;99.90;;;;;;5059468;28;20040;-56
2023/09/05 03:58:32;;;;;;;7.90;6.57;;;15.70;99.90;;;;;;5059301;28;20044;-58
2023/09/05 04:01:02;;;;;;;8.30;7.07;;;15.70;99.90;;;;;;5059386;28;20080;-58
2023/09/05 04:03:29;;;;;;;8.70;6.72;;;15.70;99.90;;;;;;5058400;28;20344;-56
2023/09/05 04:05:54;;;;;;;12.05;6.80;;;15.70;99.90;;;;;;5057849;28;20036;-56
2023/09/05 04:08:20;;;;;;;10.30;6.78;;;15.70;99.90;;;;;;5063735;28;20037;-55
2023/09/05 04:10:45;;;;;;;10.13;6.95;;;15.70;99.90;;;;;;5065346;28;20028;-57
2023/09/05 04:13:11;;;;;;;11.93;7.25;;;15.70;99.90;;;;;;5066183;28;20032;-58
2023/09/05 04:15:37;;;;;;;10.40;7.05;;;15.60;99.90;;;;;;5065372;28;20090;-58
2023/09/05 04:18:03;;;;;;;9.27;7.07;;;15.60;99.90;;;;;;5065172;28;20043;-58
2023/09/05 04:20:31;;;;;;;8.32;7.00;;;15.60;99.90;;;;;;5064637;28;20063;-59
2023/09/05 04:22:56;;;;;;;9.82;7.35;;;15.60;99.90;;;;;;5065678;28;20028;-56
2023/09/05 04:25:26;;;;;;;8.20;7.20;;;15.60;99.90;;;;;;5064486;28;20392;-57
2023/09/05 04:27:51;;;;;;;12.07;7.47;;;15.60;99.90;;;;;;5064849;28;20033;-56
2023/09/05 04:30:17;;;;;;;8.95;7.28;;;15.60;99.90;;;;;;5063957;28;20051;-58
2023/09/05 04:32:43;;;;;;;10.00;7.70;;;15.60;99.90;;;;;;5063766;28;20046;-58
2023/09/05 04:35:09;;;;;;;8.52;7.07;;;15.70;99.90;;;;;;5063417;28;20052;-57
2023/09/05 04:37:34;;;;;;;10.43;7.28;;;15.60;99.90;;;;;;5064246;28;20527;-57
2023/09/05 04:40:04;;;;;;;9.57;7.40;;;15.60;99.90;;;;;;5063181;28;20040;-58
2023/09/05 04:42:29;;;;;;;8.65;7.22;;;15.60;99.90;;;;;;5062709;28;20123;-55
2023/09/05 04:44:55;;;;;;;10.98;7.68;;;15.60;99.90;;;;;;5064690;28;20428;-59
2023/09/05 04:47:22;;;;;;;9.40;7.45;;;15.60;99.90;;;;;;5063078;28;20089;-56
2023/09/05 04:49:53;;;;;;;9.35;7.80;;;15.50;99.90;;;;;;5064782;28;20438;-60
2023/09/05 04:52:20;;;;;;;10.77;7.47;;;15.60;99.90;;;;;;5063457;28;20137;-55
2023/09/05 04:54:46;;;;;;;9.57;7.15;;;15.60;99.90;;;;;;5064036;28;20028;-56
2023/09/05 04:57:13;;;;;;;10.63;7.63;;;15.50;99.90;;;;;;5064783;28;20032;-58
2023/09/05 04:59:40;;;;;;;10.82;7.43;;;15.60;99.90;;;;;;5064525;28;20062;-59
2023/09/05 05:02:06;;;;;;;9.73;7.88;;;15.60;99.90;;;;;;5063628;28;20049;-58
2023/09/05 05:04:32;;;;;;;10.65;8.07;;;15.60;99.90;;;;;;5063988;28;20040;-57
2023/09/05 05:06:58;;;;;;;9.30;7.53;;;15.60;99.90;;;;;;5065220;28;20621;-60
2023/09/05 05:09:23;;;;;;;11.13;7.75;;;15.60;99.90;;;;;;5065201;28;20062;-59
2023/09/05 05:11:49;;;;;;;10.07;7.95;;;15.60;99.90;;;;;;5063618;28;20087;-56
2023/09/05 05:14:15;;;;;;;9.80;7.45;;;15.60;99.90;;;;;;5061847;28;20528;-57
2023/09/05 05:16:43;;;;;;;8.77;7.80;;;15.70;99.90;;;;;;5063242;28;20052;-57
2023/09/05 05:19:12;;;;;;;10.38;7.93;;;15.70;99.90;;;;;;5059244;28;20500;-57
2023/09/05 05:21:39;;;;;;;9.52;8.43;;;15.60;99.90;;;;;;5058359;28;20077;-57
2023/09/05 05:24:08;;;;;;;10.80;7.55;;;15.70;99.90;;;;;;5061207;28;20075;-57
2023/09/05 05:26:34;;;;;;;9.45;7.55;;;15.70;99.90;;;;;;5060324;28;20060;-54
2023/09/05 05:29:00;;;;;;;9.18;7.43;;;15.70;99.90;;;;;;5043170;28;20044;-57
2023/09/05 05:31:26;;;;;;;9.32;7.70;;;15.70;99.90;;;;;;5057995;28;20535;-59
2023/09/05 05:33:53;;;;;;;10.25;7.90;;;15.70;99.90;;;;;;5057176;28;20352;-58
2023/09/05 05:36:19;;;;;;;8.75;7.47;;;15.70;99.90;;;;;;5055712;28;20045;-59
2023/09/05 05:38:44;;;;;;;10.32;7.38;;;15.70;99.90;;;;;;5057085;28;20048;-57
2023/09/05 05:41:10;;;;;;;9.57;7.88;;;15.70;99.90;;;;;;5060774;28;20035;-55
2023/09/05 05:43:36;;;;;;;8.60;7.55;;;15.70;99.90;;;;;;5062126;28;20047;-57
2023/09/05 05:46:02;;;;;;;10.02;7.60;;;15.80;99.90;;;;;;5061458;28;20114;-56
2023/09/05 05:48:28;;;;;;;8.73;7.25;;;15.70;99.90;;;;;;5061550;28;20043;-56
2023/09/05 05:50:55;;;;;;;10.15;7.40;;;15.80;99.90;;;;;;5061286;28;20063;-53
2023/09/05 05:53:22;;;;;;;8.05;7.18;;;15.80;99.90;;;;;;5060406;28;20036;-56
2023/09/05 05:55:48;;;;;;;9.95;7.30;;;15.90;99.90;;;;;;5059462;28;20682;-54
2023/09/05 05:58:15;;;;;;;8.80;7.00;;;15.90;99.90;;;;;;5061520;28;20518;-56
2023/09/05 06:00:45;;;;;;;8.05;7.10;;;16.00;99.90;;;;;;5059364;28;20040;-55
2023/09/05 06:03:12;;;;;;;10.40;7.45;;;16.00;99.90;;;;;;5058841;28;20032;-55
2023/09/05 06:05:38;;;;;;;8.85;7.28;;;16.00;99.90;;;;;;5055944;28;20042;-56
2023/09/05 06:08:04;;;;;;;8.15;6.85;;;16.00;99.90;;;;;;5080328;28;20130;-59
2023/09/05 06:10:30;;;;;;;8.38;7.15;;;16.20;99.90;;;;;;5058188;28;20060;-57
2023/09/05 06:12:56;;;;;;;8.93;7.28;;;16.30;99.90;;;;;;5061340;28;23473;-56
2023/09/05 06:15:22;;;;;;;8.65;6.57;;;16.40;99.90;;;;;;5060482;28;20078;-55
2023/09/05 06:17:47;;;;;;;10.25;6.78;;;16.40;99.90;;;;;;5059266;28;20042;-55
2023/09/05 06:20:13;;;;;;;8.40;6.85;;;16.40;99.90;;;;;;5059398;28;20174;-57
2023/09/05 06:22:39;;;;;;;9.30;6.97;;;16.50;99.90;;;;;;5060057;28;20045;-56
2023/09/05 06:25:05;;;;;;;9.80;6.68;;;16.50;99.90;;;;;;5060715;28;20060;-58
2023/09/05 06:27:32;;;;;;;9.52;6.80;;;16.60;99.90;;;;;;5059131;28;20365;-56
2023/09/05 06:29:58;;;;;;;9.18;6.15;;;16.60;99.90;;;;;;5039924;28;20043;-55
2023/09/05 06:32:23;;;;;;;8.20;6.15;;;16.70;99.90;;;;;;5055792;28;20029;-55
2023/09/05 06:34:50;;;;;;;8.90;6.50;;;16.80;99.90;;;;;;5057810;28;20102;-57
2023/09/05 06:37:16;;;;;;;9.23;6.97;;;16.80;99.90;;;;;;5059781;28;20033;-56
2023/09/05 06:39:42;;;;;;;7.80;5.80;;;16.80;99.90;;;;;;5059402;28;20043;-56
2023/09/05 06:42:09;;;;;;;8.00;6.03;;;16.90;99.90;;;;;;5059390;28;20045;-55
2023/09/05 06:44:34;;;;;;;8.90;6.18;;;17.00;99.90;;;;;;5059348;28;20043;-57
2023/09/05 06:47:00;;;;;;;9.13;6.00;;;17.00;99.90;;;;;;5058800;28;20452;-52
2023/09/05 06:49:26;;;;;;;7.88;5.78;;;17.00;99.90;;;;;;5059607;28;20036;-56
2023/09/05 06:51:52;;;;;;;8.52;6.03;;;17.20;99.90;;;;;;5059129;28;20037;-57
2023/09/05 06:54:18;;;;;;;9.43;6.30;;;17.20;99.90;;;;;;5060195;28;20407;-56
2023/09/05 06:56:43;;;;;;;6.85;5.65;;;17.30;99.90;;;;;;5060127;28;20044;-54
2023/09/05 06:59:16;;;;;;;6.40;5.68;;;17.30;99.90;;;;;;5059934;28;20085;-54
2023/09/05 07:01:46;;;;;;;9.93;5.32;;;17.50;99.90;;;;;;5057381;28;20094;-59
2023/09/05 07:04:13;;;;;;;9.45;5.85;;;17.60;99.90;;;;;;5059268;28;20480;-56
2023/09/05 07:06:40;;;;;;;8.43;5.50;;;17.30;99.90;;;;;;5059648;28;20036;-55
2023/09/05 07:09:06;;;;;;;7.68;4.90;;;17.70;99.90;;;;;;5059313;28;20039;-57
2023/09/05 07:11:33;;;;;;;7.13;4.70;;;17.80;99.90;;;;;;5058905;28;20040;-58
2023/09/05 07:13:58;;;;;;;6.03;4.90;;;17.90;99.90;;;;;;5059887;28;20032;-57
2023/09/05 07:16:24;;;;;;;8.50;4.75;;;18.00;99.90;;;;;;5060295;28;20890;-60
2023/09/05 07:18:50;;;;;;;6.88;4.40;;;18.10;99.90;;;;;;5058582;28;20033;-55
2023/09/05 07:21:16;;;;;;;7.28;4.25;;;18.10;99.90;;;;;;5057407;28;20048;-55
2023/09/05 07:23:42;;;;;;;7.75;4.38;;;18.20;99.90;;;;;;5055182;28;20044;-53
2023/09/05 07:26:07;;;;;;;6.32;4.22;;;18.30;99.90;;;;;;5059288;28;20034;-56
2023/09/05 07:28:34;;;;;;;6.50;4.35;;;18.50;99.90;;;;;;5057724;28;20033;-58
2023/09/05 07:31:01;;;;;;;6.07;4.20;;;18.50;99.90;;;;;;5058814;28;20039;-59
2023/09/05 07:33:27;;;;;;;7.60;3.90;;;18.60;99.90;;;;;;5059368;28;20036;-58
2023/09/05 07:35:53;;;;;;;5.90;4.05;;;18.70;99.90;;;;;;5057606;28;20075;-59
2023/09/05 07:38:21;;;;;;;7.13;4.43;;;18.80;99.90;;;;;;5058782;28;20036;-56
2023/09/05 07:41:03;;;;;;;5.05;3.67;;;18.90;99.90;;;;;;5058568;28;20036;-59
2023/09/05 07:43:30;;;;;;;6.70;4.13;;;18.90;99.90;;;;;;5057406;28;20171;-55
2023/09/05 07:45:56;;;;;;;8.05;3.97;;;19.00;99.90;;;;;;5059071;28;20102;-60
2023/09/05 07:48:23;;;;;;;7.95;4.05;;;19.00;99.90;;;;;;5058416;28;20127;-56
2023/09/05 07:50:48;;;;;;;5.72;3.70;;;19.10;99.90;;;;;;5059050;28;20166;-58
2023/09/05 07:53:14;;;;;;;6.50;3.92;;;19.10;99.90;;;;;;5058733;28;20115;-57
2023/09/05 07:55:40;;;;;;;6.47;4.05;;;19.20;99.90;;;;;;5057423;28;20137;-57
2023/09/05 07:58:05;;;;;;;9.50;3.85;;;19.30;99.90;;;;;;5058465;28;20141;-59
2023/09/05 08:00:31;;;;;;;5.63;3.60;;;19.40;99.90;;;;;;5056527;28;20905;-58
2023/09/05 08:02:58;;;;;;;5.15;3.50;;;19.40;99.90;;;;;;5058404;28;20079;-56
2023/09/05 08:05:24;;;;;;;5.57;3.70;;;19.50;99.90;;;;;;5056175;28;20055;-57
2023/09/05 08:07:50;;;;;;;5.68;3.05;;;19.60;99.90;;;;;;5057112;28;20665;-57
2023/09/05 08:10:16;;;;;;;4.70;3.10;;;19.70;99.90;;;;;;5057120;28;20064;-58
2023/09/05 08:12:42;;;;;;;5.03;2.90;;;19.80;99.90;;;;;;5056831;28;20505;-58
2023/09/05 08:15:09;;;;;;;4.88;2.90;;;20.00;99.90;;;;;;5057400;28;20036;-55
2023/09/05 08:17:35;;;;;;;4.82;2.78;;;20.10;99.90;;;;;;5057700;28;20059;-59
2023/09/05 08:20:03;;;;;;;4.18;2.65;;;20.20;99.90;;;;;;5053004;28;20037;-56
2023/09/05 08:22:29;;;;;;;4.30;2.65;;;20.30;99.90;;;;;;5052285;28;20056;-56
2023/09/05 08:24:55;;;;;;;5.35;2.67;;;20.40;99.90;;;;;;5050288;28;20033;-57
2023/09/05 08:27:28;;;;;;;4.32;2.42;;;20.50;99.90;;;;;;5043315;28;20480;-54
2023/09/05 08:29:55;;;;;;;6.15;2.67;;;20.60;99.90;;;;;;5049494;28;20124;-54
2023/09/05 08:32:21;;;;;;;3.75;2.33;;;20.70;99.90;;;;;;5053219;28;20127;-58
2023/09/05 08:34:47;;;;;;;5.78;2.90;;;20.80;99.90;;;;;;5054728;28;20060;-57
2023/09/05 08:37:13;;;;;;;5.05;2.55;;;20.90;99.90;;;;;;5055091;28;20090;-55
2023/09/05 08:39:39;;;;;;;6.55;3.65;;;21.00;99.90;;;;;;5053959;28;20076;-57
2023/09/05 08:42:08;;;;;;;4.13;2.40;;;21.10;99.90;;;;;;5055654;28;20079;-59
2023/09/05 08:44:38;;;;;;;4.40;2.63;;;21.30;99.90;;;;;;5056797;28;20032;-58
2023/09/05 08:47:05;;;;;;;5.63;2.30;;;21.40;99.90;;;;;;5081729;28;20052;-56
2023/09/05 08:49:31;;;;;;;4.60;2.55;;;21.50;99.90;;;;;;5055160;28;20052;-56
2023/09/05 08:52:02;;;;;;;4.47;2.30;;;21.50;99.90;;;;;;5055651;28;20044;-54
2023/09/05 08:54:28;;;;;;;5.00;2.20;;;21.60;99.90;;;;;;5056702;28;20098;-56
2023/09/05 08:56:55;;;;;;;4.45;2.10;;;21.80;99.90;;;;;;5057268;28;20033;-51
2023/09/05 08:59:21;;;;;;;3.35;2.10;;;22.00;99.90;;;;;;5059070;28;20037;-54
2023/09/05 09:01:47;;;;;;;6.22;2.28;;;22.00;99.90;;;;;;5060405;28;20044;-55
2023/09/05 09:04:13;;;;;;;5.50;2.13;;;22.20;99.90;;;;;;5058358;28;20029;-57
2023/09/05 09:06:42;;;;;;;5.32;1.70;;;22.30;99.90;;;;;;5058200;28;20130;-56
2023/09/05 09:09:28;;;;;;;4.32;2.13;;;22.60;99.90;;;;;;5060359;28;20154;-55
2023/09/05 09:12:00;;;;;;;5.57;2.00;;;22.80;99.90;;;;;;5059963;28;20036;-52
2023/09/05 09:14:26;;;;;;;3.60;1.98;;;23.00;99.90;;;;;;5059538;28;20388;-54
2023/09/05 09:16:51;;;;;;;4.28;1.90;;;23.10;99.90;;;;;;5057861;28;20082;-55
2023/09/05 09:19:17;;;;;;;3.60;1.80;;;23.30;99.90;;;;;;5059950;28;20067;-54
2023/09/05 09:21:43;;;;;;;3.35;1.67;;;23.40;99.90;;;;;;5059294;28;20056;-57
2023/09/05 09:24:09;;;;;;;3.95;1.70;;;23.50;99.90;;;;;;5058771;28;20075;-57
2023/09/05 09:26:39;;;;;;;4.25;1.88;;;23.80;99.90;;;;;;5059478;28;20025;-53
2023/09/05 09:29:11;;;;;;;5.18;1.65;;;24.00;99.90;;;;;;5060530;28;20123;-54
2023/09/05 09:31:40;;;;;;;3.85;1.60;;;24.40;99.90;;;;;;5059023;28;20123;-52
2023/09/05 09:34:07;;;;;;;3.95;1.63;;;24.30;99.90;;;;;;5059796;28;20040;-52
2023/09/05 09:36:34;;;;;;;3.42;1.80;;;24.40;99.90;;;;;;5059713;28;20049;-54
2023/09/05 09:39:20;;;;;;;5.28;1.70;;;24.60;99.90;;;;;;5059108;28;20040;-57
2023/09/05 09:41:47;;;;;;;5.30;2.47;;;24.70;99.90;;;;;;5058752;28;20152;-59
2023/09/05 09:44:34;;;;;;;5.45;2.13;;;24.70;99.90;;;;;;5058737;28;20189;-57
2023/09/05 09:47:02;;;;;;;3.80;1.70;;;24.80;99.90;;;;;;5059475;28;20039;-58
2023/09/05 09:49:29;;;;;;;3.53;1.90;;;24.90;99.90;;;;;;5054910;28;20504;-53
2023/09/05 09:52:04;;;;;;;5.93;2.30;;;25.00;99.90;;;;;;5056106;28;20040;-57
2023/09/05 09:54:37;;;;;;;4.57;1.80;;;25.10;99.90;;;;;;5059271;28;20054;-55
2023/09/05 09:57:04;;;;;;;3.50;1.45;;;25.10;99.90;;;;;;5058238;28;20546;-54
2023/09/05 09:59:35;;;;;;;3.20;1.35;;;25.20;99.90;;;;;;5060116;28;20029;-54
2023/09/05 10:02:14;;;;;;;3.55;1.67;;;25.20;99.90;;;;;;5058624;28;20046;-56
2023/09/05 10:04:41;;;;;;;3.88;1.45;;;25.30;99.90;;;;;;5059439;28;20492;-54
2023/09/05 10:07:14;;;;;;;5.45;1.67;;;25.40;99.90;;;;;;5060428;28;20115;-55
2023/09/05 10:09:45;;;;;;;3.88;1.40;;;25.40;99.90;;;;;;5061642;28;20116;-55
2023/09/05 10:12:11;;;;;;;3.50;1.80;;;25.40;99.90;;;;;;5060744;28;20166;-56
2023/09/05 10:14:38;;;;;;;3.10;1.35;;;25.40;99.90;;;;;;5060522;28;20476;-57
2023/09/05 10:17:04;;;;;;;3.28;1.48;;;25.50;99.90;;;;;;5060866;28;20040;-53
2023/09/05 10:19:31;;;;;;;3.63;1.80;;;25.60;99.90;;;;;;5061089;28;20094;-55
2023/09/05 10:22:00;;;;;;;3.10;1.52;;;25.70;99.90;;;;;;5059229;28;20064;-55
2023/09/05 10:24:30;;;;;;;3.53;1.50;;;25.70;99.90;;;;;;5056984;28;20487;-54
2023/09/05 10:26:56;;;;;;;3.80;1.63;;;25.80;99.90;;;;;;5056751;28;20033;-56
2023/09/05 10:29:44;;;;;;;3.13;1.20;;;25.90;99.90;;;;;;5058372;28;20037;-54
2023/09/05 10:32:22;;;;;;;4.32;1.60;;;26.00;99.90;;;;;;5051302;28;20094;-57
2023/09/05 10:34:48;;;;;;;6.43;1.60;;;26.10;99.90;;;;;;5054466;28;20598;-56
2023/09/05 10:37:22;;;;;;;4.25;1.50;;;26.10;99.90;;;;;;5056418;28;20049;-57
2023/09/05 10:39:54;;;;;;;4.43;1.48;;;26.20;99.90;;;;;;5056074;28;20467;-58
2023/09/05 10:42:27;;;;;;;4.30;1.50;;;26.30;99.90;;;;;;5056974;28;20044;-54
2023/09/05 10:44:53;;;;;;;4.00;1.70;;;26.40;99.90;;;;;;5056344;28;20032;-58
2023/09/05 10:47:35;;;;;;;4.70;1.40;;;26.40;99.90;;;;;;5057174;28;20348;-56
2023/09/05 10:50:04;;;;;;;4.47;1.60;;;26.60;99.90;;;;;;5057173;28;20079;-59
2023/09/05 10:52:31;;;;;;;3.15;1.50;;;26.60;99.90;;;;;;5056906;28;20509;-57
2023/09/05 10:54:58;;;;;;;9.63;2.13;;;26.80;99.90;;;;;;5057780;28;20475;-58
2023/09/05 10:57:42;;;;;;;12.85;2.65;;;26.90;99.90;;;;;;5055635;28;20048;-56
2023/09/05 11:00:17;;;;;;;3.63;1.40;;;27.00;99.90;;;;;;5055648;28;20040;-55
2023/09/05 11:02:47;;;;;;;4.18;1.67;;;27.10;99.90;;;;;;5056149;28;20160;-57
2023/09/05 11:05:18;;;;;;;3.15;1.30;;;27.20;99.90;;;;;;5057178;28;20537;-55
2023/09/05 11:07:44;;;;;;;4.38;1.40;;;27.40;99.90;;;;;;5058677;28;20064;-55
2023/09/05 11:10:14;;;;;;;3.20;1.63;;;27.50;99.90;;;;;;5055297;28;20029;-55
2023/09/05 11:12:40;;;;;;;2.67;1.10;;;27.60;99.90;;;;;;5057811;28;20045;-58
2023/09/05 11:15:08;;;;;;;3.53;1.50;;;27.70;99.90;;;;;;5058050;28;20051;-58
2023/09/05 11:17:36;;;;;;;2.85;1.30;;;27.80;99.90;;;;;;5057016;28;20045;-55
2023/09/05 11:20:03;;;;;;;4.45;1.35;;;27.90;99.90;;;;;;5056826;28;20040;-56
2023/09/05 11:22:29;;;;;;;4.10;1.60;;;28.00;99.90;;;;;;5056814;28;20045;-55
2023/09/05 11:24:58;;;;;;;3.95;1.40;;;28.10;99.90;;;;;;5058125;28;20078;-56
2023/09/05 11:27:26;;;;;;;2.72;1.40;;;28.20;99.90;;;;;;5057045;28;20098;-55
2023/09/05 11:29:55;;;;;;;3.10;1.20;;;28.30;99.90;;;;;;5054535;28;20624;-58
2023/09/05 11:32:31;;;;;;;2.50;1.23;;;28.30;99.90;;;;;;5053477;28;20127;-56
2023/09/05 11:35:05;;;;;;;2.75;1.38;;;28.40;99.90;;;;;;5054303;28;20063;-58
2023/09/05 11:37:32;;;;;;;4.38;1.60;;;28.40;99.90;;;;;;5056637;28;20043;-59
2023/09/05 11:40:12;;;;;;;3.00;1.13;;;28.50;99.90;;;;;;5057525;28;20226;-59
2023/09/05 11:42:38;;;;;;;2.85;1.10;;;28.60;99.90;;;;;;5058565;28;20040;-57
2023/09/05 11:45:18;;;;;;;3.95;1.35;;;28.70;99.90;;;;;;5057706;28;20034;-59
2023/09/05 11:47:44;;;;;;;4.07;1.27;;;28.90;99.90;;;;;;5057412;28;20047;-57
2023/09/05 11:50:10;;;;;;;6.38;1.63;;;28.90;99.90;;;;;;5083648;28;20037;-58
2023/09/05 11:52:40;;;;;;;5.95;1.77;;;29.10;99.90;;;;;;5058929;28;20039;-57
2023/09/05 11:55:06;;;;;;;2.90;1.27;;;29.20;99.90;;;;;;5059793;28;20491;-57
2023/09/05 11:57:33;;;;;;;3.38;1.30;;;29.40;99.90;;;;;;5059701;28;20040;-58
2023/09/05 11:59:59;;;;;;;92.80;12.25;;;29.50;99.90;;;;;;5058677;28;20032;-58
2023/09/05 12:02:26;;;;;;;5.90;1.33;;;29.60;99.90;;;;;;5058365;28;20040;-57
2023/09/05 12:04:52;;;;;;;3.15;1.20;;;29.70;99.90;;;;;;5057882;28;20040;-56
2023/09/05 12:07:23;;;;;;;3.97;1.40;;;29.80;99.90;;;;;;5060015;28;20379;-56
2023/09/05 12:09:48;;;;;;;39.15;4.70;;;29.90;99.90;;;;;;5059784;28;20037;-58
2023/09/05 12:12:20;;;;;;;2.65;1.10;;;30.00;99.80;;;;;;5058767;28;20032;-59
2023/09/05 12:14:55;;;;;;;3.58;1.25;;;30.10;99.90;;;;;;5058405;28;20486;-57
2023/09/05 12:17:24;;;;;;;5.95;1.55;;;30.20;99.90;;;;;;5059176;28;20089;-58
2023/09/05 12:19:51;;;;;;;3.45;1.45;;;30.30;99.90;;;;;;5059806;28;20087;-57
2023/09/05 12:22:28;;;;;;;2.78;1.20;;;30.40;99.90;;;;;;5059438;28;20067;-59
2023/09/05 12:25:28;;;;;;;3.00;1.30;;;30.50;99.90;;;;;;5058447;28;20031;-58
2023/09/05 12:28:32;;;;;;;2.83;1.38;;;30.60;99.90;;;;;;5036522;28;20528;-57
2023/09/05 12:31:10;;;;;;;2.97;1.20;;;30.60;99.90;;;;;;5061819;28;20411;-59
2023/09/05 12:33:36;;;;;;;2.78;0.98;;;30.70;99.90;;;;;;5061760;28;20407;-57
2023/09/05 12:36:02;;;;;;;5.90;1.40;;;30.90;99.90;;;;;;5061555;28;20123;-58
2023/09/05 12:38:30;;;;;;;2.90;1.20;;;31.00;99.80;;;;;;5062648;28;20045;-57
2023/09/05 12:40:59;;;;;;;2.53;1.10;;;31.10;99.40;;;;;;5062185;28;20127;-58
2023/09/05 12:43:25;;;;;;;3.40;1.10;;;31.20;98.90;;;;;;5062417;28;20361;-58
2023/09/05 12:45:51;;;;;;;3.08;1.00;;;31.30;98.80;;;;;;5063608;28;20059;-58
2023/09/05 12:48:17;;;;;;;4.25;1.30;;;31.40;98.40;;;;;;5062412;28;20090;-57